sensor_id;sensor_type;location;lat;lon;timestamp;P1;durP1;ratioP1;P2;durP2;ratioP2
53036;SDS011;38924;52.134;4.666;2022-07-05T00:00:35;803.80;;;732.83;;
53036;SDS011;38924;52.134;4.666;2022-07-05T00:03:01;771.92;;;704.58;;
53036;SDS011;38924;52.134;4.666;2022-07-05T00:05:26;764.45;;;697.30;;
53036;SDS011;38924;52.134;4.666;2022-07-05T00:07:52;780.00;;;712.75;;
53036;SDS011;38924;52.134;4.666;2022-07-05T00:10:18;771.33;;;701.80;;
53036;SDS011;38924;52.134;4.666;2022-07-05T00:12:44;795.05;;;725.50;;
53036;SDS011;38924;52.134;4.666;2022-07-05T00:15:10;785.70;;;717.70;;
53036;SDS011;38924;52.134;4.666;2022-07-05T00:17:35;769.97;;;702.90;;
53036;SDS011;38924;52.134;4.666;2022-07-05T00:20:01;779.67;;;712.03;;
53036;SDS011;38924;52.134;4.666;2022-07-05T00:22:27;732.00;;;672.08;;
53036;SDS011;38924;52.134;4.666;2022-07-05T00:24:52;735.03;;;673.22;;
53036;SDS011;38924;52.134;4.666;2022-07-05T00:27:18;739.20;;;673.58;;
53036;SDS011;38924;52.134;4.666;2022-07-05T00:29:45;732.63;;;669.58;;
53036;SDS011;38924;52.134;4.666;2022-07-05T00:32:10;724.70;;;662.10;;
53036;SDS011;38924;52.134;4.666;2022-07-05T00:34:36;694.20;;;635.78;;
53036;SDS011;38924;52.134;4.666;2022-07-05T00:37:02;705.65;;;644.42;;
53036;SDS011;38924;52.134;4.666;2022-07-05T00:39:31;705.85;;;644.72;;
53036;SDS011;38924;52.134;4.666;2022-07-05T00:41:57;742.00;;;678.30;;
53036;SDS011;38924;52.134;4.666;2022-07-05T00:44:33;694.00;;;635.35;;
53036;SDS011;38924;52.134;4.666;2022-07-05T00:47:04;691.03;;;633.05;;
53036;SDS011;38924;52.134;4.666;2022-07-05T00:49:30;699.72;;;639.60;;
53036;SDS011;38924;52.134;4.666;2022-07-05T00:51:56;704.08;;;644.50;;
53036;SDS011;38924;52.134;4.666;2022-07-05T00:54:22;691.42;;;632.75;;
53036;SDS011;38924;52.134;4.666;2022-07-05T00:56:48;662.03;;;606.53;;
53036;SDS011;38924;52.134;4.666;2022-07-05T00:59:13;707.42;;;646.63;;
53036;SDS011;38924;52.134;4.666;2022-07-05T01:01:42;673.15;;;615.58;;
53036;SDS011;38924;52.134;4.666;2022-07-05T01:04:11;669.17;;;611.85;;
53036;SDS011;38924;52.134;4.666;2022-07-05T01:06:38;684.58;;;625.67;;
53036;SDS011;38924;52.134;4.666;2022-07-05T01:09:03;668.90;;;612.55;;
53036;SDS011;38924;52.134;4.666;2022-07-05T01:11:30;641.05;;;586.47;;
53036;SDS011;38924;52.134;4.666;2022-07-05T01:13:58;639.63;;;586.08;;
53036;SDS011;38924;52.134;4.666;2022-07-05T01:16:24;663.15;;;606.03;;
53036;SDS011;38924;52.134;4.666;2022-07-05T01:18:50;656.35;;;599.33;;
53036;SDS011;38924;52.134;4.666;2022-07-05T01:21:16;641.25;;;587.30;;
53036;SDS011;38924;52.134;4.666;2022-07-05T01:23:46;612.33;;;560.17;;
53036;SDS011;38924;52.134;4.666;2022-07-05T01:26:16;638.97;;;585.17;;
53036;SDS011;38924;52.134;4.666;2022-07-05T01:28:41;640.83;;;584.63;;
53036;SDS011;38924;52.134;4.666;2022-07-05T01:31:07;640.60;;;585.13;;
53036;SDS011;38924;52.134;4.666;2022-07-05T01:33:35;619.80;;;565.40;;
53036;SDS011;38924;52.134;4.666;2022-07-05T01:36:01;617.08;;;565.13;;
53036;SDS011;38924;52.134;4.666;2022-07-05T01:38:27;613.28;;;561.58;;
53036;SDS011;38924;52.134;4.666;2022-07-05T01:40:52;592.10;;;541.47;;
53036;SDS011;38924;52.134;4.666;2022-07-05T01:43:19;581.05;;;532.60;;
53036;SDS011;38924;52.134;4.666;2022-07-05T01:45:48;583.90;;;534.75;;
53036;SDS011;38924;52.134;4.666;2022-07-05T01:48:15;611.75;;;560.13;;
53036;SDS011;38924;52.134;4.666;2022-07-05T01:50:46;597.55;;;547.47;;
53036;SDS011;38924;52.134;4.666;2022-07-05T01:53:22;592.60;;;543.88;;
53036;SDS011;38924;52.134;4.666;2022-07-05T01:55:49;583.70;;;534.25;;
53036;SDS011;38924;52.134;4.666;2022-07-05T01:58:18;568.03;;;520.05;;
53036;SDS011;38924;52.134;4.666;2022-07-05T02:00:44;577.10;;;529.05;;
53036;SDS011;38924;52.134;4.666;2022-07-05T02:03:10;552.88;;;507.00;;
53036;SDS011;38924;52.134;4.666;2022-07-05T02:05:36;543.20;;;498.23;;
53036;SDS011;38924;52.134;4.666;2022-07-05T02:08:03;562.05;;;515.25;;
53036;SDS011;38924;52.134;4.666;2022-07-05T02:10:28;516.20;;;473.23;;
53036;SDS011;38924;52.134;4.666;2022-07-05T02:12:54;542.95;;;497.95;;
53036;SDS011;38924;52.134;4.666;2022-07-05T02:15:20;542.72;;;496.55;;
53036;SDS011;38924;52.134;4.666;2022-07-05T02:17:46;538.83;;;493.42;;
53036;SDS011;38924;52.134;4.666;2022-07-05T02:20:12;514.08;;;471.95;;
53036;SDS011;38924;52.134;4.666;2022-07-05T02:22:38;504.70;;;462.70;;
53036;SDS011;38924;52.134;4.666;2022-07-05T02:25:04;533.00;;;488.02;;
53036;SDS011;38924;52.134;4.666;2022-07-05T02:27:30;519.35;;;476.58;;
53036;SDS011;38924;52.134;4.666;2022-07-05T02:29:56;511.95;;;470.25;;
53036;SDS011;38924;52.134;4.666;2022-07-05T02:32:33;498.95;;;457.58;;
53036;SDS011;38924;52.134;4.666;2022-07-05T02:35:00;487.90;;;446.23;;
53036;SDS011;38924;52.134;4.666;2022-07-05T02:37:26;496.75;;;455.50;;
53036;SDS011;38924;52.134;4.666;2022-07-05T02:39:52;519.97;;;478.05;;
53036;SDS011;38924;52.134;4.666;2022-07-05T02:42:18;497.73;;;456.05;;
53036;SDS011;38924;52.134;4.666;2022-07-05T02:44:44;502.95;;;460.63;;
53036;SDS011;38924;52.134;4.666;2022-07-05T02:47:10;495.92;;;454.83;;
53036;SDS011;38924;52.134;4.666;2022-07-05T02:49:36;524.25;;;482.58;;
53036;SDS011;38924;52.134;4.666;2022-07-05T02:52:04;508.83;;;466.08;;
53036;SDS011;38924;52.134;4.666;2022-07-05T02:54:30;498.25;;;455.83;;
53036;SDS011;38924;52.134;4.666;2022-07-05T02:56:57;508.98;;;465.52;;
53036;SDS011;38924;52.134;4.666;2022-07-05T02:59:26;500.38;;;458.10;;
53036;SDS011;38924;52.134;4.666;2022-07-05T03:01:52;497.45;;;456.55;;
53036;SDS011;38924;52.134;4.666;2022-07-05T03:04:18;487.52;;;445.85;;
53036;SDS011;38924;52.134;4.666;2022-07-05T03:06:50;521.20;;;476.75;;
53036;SDS011;38924;52.134;4.666;2022-07-05T03:09:16;506.90;;;465.55;;
53036;SDS011;38924;52.134;4.666;2022-07-05T03:11:43;498.85;;;457.48;;
53036;SDS011;38924;52.134;4.666;2022-07-05T03:14:09;487.75;;;446.90;;
53036;SDS011;38924;52.134;4.666;2022-07-05T03:16:38;529.17;;;484.92;;
53036;SDS011;38924;52.134;4.666;2022-07-05T03:19:05;484.35;;;446.40;;
53036;SDS011;38924;52.134;4.666;2022-07-05T03:21:31;486.52;;;445.08;;
53036;SDS011;38924;52.134;4.666;2022-07-05T03:23:57;494.08;;;454.08;;
53036;SDS011;38924;52.134;4.666;2022-07-05T03:26:23;460.95;;;424.23;;
53036;SDS011;38924;52.134;4.666;2022-07-05T03:28:49;491.17;;;450.48;;
53036;SDS011;38924;52.134;4.666;2022-07-05T03:31:16;491.58;;;452.40;;
53036;SDS011;38924;52.134;4.666;2022-07-05T03:33:42;515.30;;;473.00;;
53036;SDS011;38924;52.134;4.666;2022-07-05T03:36:10;467.52;;;430.17;;
53036;SDS011;38924;52.134;4.666;2022-07-05T03:38:37;508.20;;;465.02;;
53036;SDS011;38924;52.134;4.666;2022-07-05T03:41:03;501.50;;;460.08;;
53036;SDS011;38924;52.134;4.666;2022-07-05T03:43:29;499.55;;;459.33;;
53036;SDS011;38924;52.134;4.666;2022-07-05T03:45:55;514.67;;;471.85;;
53036;SDS011;38924;52.134;4.666;2022-07-05T03:48:21;471.58;;;433.77;;
53036;SDS011;38924;52.134;4.666;2022-07-05T03:50:48;485.85;;;446.45;;
53036;SDS011;38924;52.134;4.666;2022-07-05T03:53:14;484.48;;;444.73;;
53036;SDS011;38924;52.134;4.666;2022-07-05T03:55:41;521.67;;;479.33;;
53036;SDS011;38924;52.134;4.666;2022-07-05T03:58:08;495.40;;;455.10;;
53036;SDS011;38924;52.134;4.666;2022-07-05T04:00:35;459.80;;;421.30;;
53036;SDS011;38924;52.134;4.666;2022-07-05T04:03:05;520.30;;;476.48;;
53036;SDS011;38924;52.134;4.666;2022-07-05T04:05:30;539.38;;;493.08;;
53036;SDS011;38924;52.134;4.666;2022-07-05T04:08:00;493.30;;;452.65;;
53036;SDS011;38924;52.134;4.666;2022-07-05T04:10:31;494.13;;;453.27;;
53036;SDS011;38924;52.134;4.666;2022-07-05T04:12:56;487.30;;;448.88;;
53036;SDS011;38924;52.134;4.666;2022-07-05T04:15:24;514.47;;;472.05;;
53036;SDS011;38924;52.134;4.666;2022-07-05T04:17:53;511.63;;;470.20;;
53036;SDS011;38924;52.134;4.666;2022-07-05T04:20:20;517.15;;;474.15;;
53036;SDS011;38924;52.134;4.666;2022-07-05T04:22:47;548.33;;;501.73;;
53036;SDS011;38924;52.134;4.666;2022-07-05T04:25:14;536.40;;;490.95;;
53036;SDS011;38924;52.134;4.666;2022-07-05T04:27:48;580.75;;;531.72;;
53036;SDS011;38924;52.134;4.666;2022-07-05T04:30:14;542.85;;;497.30;;
53036;SDS011;38924;52.134;4.666;2022-07-05T04:32:40;535.13;;;490.20;;
53036;SDS011;38924;52.134;4.666;2022-07-05T04:35:06;560.25;;;515.13;;
53036;SDS011;38924;52.134;4.666;2022-07-05T04:37:33;587.53;;;537.97;;
53036;SDS011;38924;52.134;4.666;2022-07-05T04:40:02;542.42;;;496.67;;
53036;SDS011;38924;52.134;4.666;2022-07-05T04:42:28;531.30;;;486.40;;
53036;SDS011;38924;52.134;4.666;2022-07-05T04:44:54;519.17;;;475.95;;
53036;SDS011;38924;52.134;4.666;2022-07-05T04:47:20;533.22;;;488.23;;
53036;SDS011;38924;52.134;4.666;2022-07-05T04:49:46;529.63;;;485.20;;
53036;SDS011;38924;52.134;4.666;2022-07-05T04:52:12;533.70;;;489.75;;
53036;SDS011;38924;52.134;4.666;2022-07-05T04:54:37;548.20;;;502.00;;
53036;SDS011;38924;52.134;4.666;2022-07-05T04:57:03;553.00;;;507.90;;
53036;SDS011;38924;52.134;4.666;2022-07-05T04:59:29;542.92;;;498.48;;
53036;SDS011;38924;52.134;4.666;2022-07-05T05:01:55;572.67;;;525.60;;
53036;SDS011;38924;52.134;4.666;2022-07-05T05:04:20;587.05;;;537.67;;
53036;SDS011;38924;52.134;4.666;2022-07-05T05:06:46;556.97;;;511.45;;
53036;SDS011;38924;52.134;4.666;2022-07-05T05:09:12;548.58;;;503.50;;
53036;SDS011;38924;52.134;4.666;2022-07-05T05:11:38;556.58;;;509.67;;
53036;SDS011;38924;52.134;4.666;2022-07-05T05:14:03;584.83;;;536.03;;
53036;SDS011;38924;52.134;4.666;2022-07-05T05:16:29;576.22;;;527.88;;
53036;SDS011;38924;52.134;4.666;2022-07-05T05:18:55;557.08;;;511.42;;
53036;SDS011;38924;52.134;4.666;2022-07-05T05:21:20;584.95;;;536.65;;
53036;SDS011;38924;52.134;4.666;2022-07-05T05:23:46;559.20;;;513.28;;
53036;SDS011;38924;52.134;4.666;2022-07-05T05:26:14;577.50;;;529.40;;
53036;SDS011;38924;52.134;4.666;2022-07-05T05:28:41;582.20;;;533.88;;
53036;SDS011;38924;52.134;4.666;2022-07-05T05:31:06;614.72;;;563.20;;
53036;SDS011;38924;52.134;4.666;2022-07-05T05:33:32;651.80;;;596.67;;
53036;SDS011;38924;52.134;4.666;2022-07-05T05:36:00;631.35;;;578.90;;
53036;SDS011;38924;52.134;4.666;2022-07-05T05:38:26;695.45;;;635.35;;
53036;SDS011;38924;52.134;4.666;2022-07-05T05:40:52;669.85;;;612.28;;
53036;SDS011;38924;52.134;4.666;2022-07-05T05:43:17;711.83;;;650.17;;
53036;SDS011;38924;52.134;4.666;2022-07-05T05:45:43;737.25;;;674.58;;
53036;SDS011;38924;52.134;4.666;2022-07-05T05:48:08;728.30;;;666.90;;
53036;SDS011;38924;52.134;4.666;2022-07-05T05:50:36;791.42;;;723.55;;
53036;SDS011;38924;52.134;4.666;2022-07-05T05:53:02;802.90;;;732.13;;
53036;SDS011;38924;52.134;4.666;2022-07-05T05:55:29;830.35;;;757.00;;
53036;SDS011;38924;52.134;4.666;2022-07-05T05:57:55;829.13;;;757.30;;
53036;SDS011;38924;52.134;4.666;2022-07-05T06:00:23;855.47;;;780.28;;
53036;SDS011;38924;52.134;4.666;2022-07-05T06:02:50;865.33;;;786.08;;
53036;SDS011;38924;52.134;4.666;2022-07-05T06:05:16;837.17;;;763.28;;
53036;SDS011;38924;52.134;4.666;2022-07-05T06:07:52;899.85;;;817.72;;
53036;SDS011;38924;52.134;4.666;2022-07-05T06:10:28;889.03;;;810.30;;
53036;SDS011;38924;52.134;4.666;2022-07-05T07:52:06;1635.28;;;999.90;;
53036;SDS011;38924;52.134;4.666;2022-07-05T07:54:32;1578.53;;;999.90;;
53036;SDS011;38924;52.134;4.666;2022-07-05T07:56:58;1542.35;;;999.90;;
53036;SDS011;38924;52.134;4.666;2022-07-05T07:59:25;1452.93;;;999.90;;
53036;SDS011;38924;52.134;4.666;2022-07-05T08:01:51;1418.03;;;999.90;;
53036;SDS011;38924;52.134;4.666;2022-07-05T08:04:17;1336.78;;;999.90;;
53036;SDS011;38924;52.134;4.666;2022-07-05T08:06:43;1421.80;;;999.90;;
53036;SDS011;38924;52.134;4.666;2022-07-05T08:09:08;1453.05;;;999.90;;
53036;SDS011;38924;52.134;4.666;2022-07-05T08:11:34;1431.63;;;999.90;;
53036;SDS011;38924;52.134;4.666;2022-07-05T08:14:00;1479.70;;;999.90;;
53036;SDS011;38924;52.134;4.666;2022-07-05T08:16:26;1414.28;;;999.90;;
53036;SDS011;38924;52.134;4.666;2022-07-05T08:18:51;1376.35;;;999.90;;
53036;SDS011;38924;52.134;4.666;2022-07-05T08:21:35;1396.47;;;999.90;;
53036;SDS011;38924;52.134;4.666;2022-07-05T08:24:04;1414.72;;;999.90;;
53036;SDS011;38924;52.134;4.666;2022-07-05T08:26:30;1431.95;;;999.90;;
53036;SDS011;38924;52.134;4.666;2022-07-05T08:28:56;1406.43;;;999.90;;
53036;SDS011;38924;52.134;4.666;2022-07-05T08:31:27;1425.10;;;999.90;;
53036;SDS011;38924;52.134;4.666;2022-07-05T08:33:53;1449.38;;;999.90;;
53036;SDS011;38924;52.134;4.666;2022-07-05T08:36:19;1410.93;;;999.90;;
53036;SDS011;38924;52.134;4.666;2022-07-05T08:38:44;1378.68;;;999.90;;
53036;SDS011;38924;52.134;4.666;2022-07-05T08:41:10;1382.28;;;999.90;;
53036;SDS011;38924;52.134;4.666;2022-07-05T08:43:41;1415.65;;;999.90;;
53036;SDS011;38924;52.134;4.666;2022-07-05T08:46:13;1326.20;;;999.90;;
53036;SDS011;38924;52.134;4.666;2022-07-05T08:48:40;1431.60;;;999.90;;
53036;SDS011;38924;52.134;4.666;2022-07-05T08:53:35;1422.85;;;999.90;;
53036;SDS011;38924;52.134;4.666;2022-07-05T08:56:00;1338.82;;;999.90;;
53036;SDS011;38924;52.134;4.666;2022-07-05T08:58:26;1412.55;;;999.90;;
53036;SDS011;38924;52.134;4.666;2022-07-05T09:00:52;1407.93;;;999.90;;
53036;SDS011;38924;52.134;4.666;2022-07-05T09:03:17;1367.63;;;999.90;;
53036;SDS011;38924;52.134;4.666;2022-07-05T09:05:45;1311.97;;;999.90;;
53036;SDS011;38924;52.134;4.666;2022-07-05T09:08:13;1435.32;;;999.90;;
53036;SDS011;38924;52.134;4.666;2022-07-05T09:10:40;1302.97;;;999.90;;
53036;SDS011;38924;52.134;4.666;2022-07-05T09:13:10;1362.32;;;999.90;;
53036;SDS011;38924;52.134;4.666;2022-07-05T09:15:42;1438.90;;;999.90;;
53036;SDS011;38924;52.134;4.666;2022-07-05T09:18:09;1350.43;;;999.90;;
53036;SDS011;38924;52.134;4.666;2022-07-05T09:20:34;1353.30;;;999.90;;
53036;SDS011;38924;52.134;4.666;2022-07-05T09:23:00;1372.85;;;999.90;;
53036;SDS011;38924;52.134;4.666;2022-07-05T09:25:29;1396.25;;;999.90;;
53036;SDS011;38924;52.134;4.666;2022-07-05T09:27:56;1404.07;;;999.90;;
53036;SDS011;38924;52.134;4.666;2022-07-05T09:30:23;1481.97;;;999.90;;
53036;SDS011;38924;52.134;4.666;2022-07-05T09:35:55;1456.95;;;999.90;;
53036;SDS011;38924;52.134;4.666;2022-07-05T09:38:23;1389.45;;;999.90;;
53036;SDS011;38924;52.134;4.666;2022-07-05T09:40:58;1427.38;;;999.90;;
53036;SDS011;38924;52.134;4.666;2022-07-05T09:43:26;1428.18;;;999.90;;
53036;SDS011;38924;52.134;4.666;2022-07-05T09:45:53;1389.63;;;999.90;;
53036;SDS011;38924;52.134;4.666;2022-07-05T09:48:19;1434.80;;;999.90;;
53036;SDS011;38924;52.134;4.666;2022-07-05T09:50:45;1455.75;;;999.90;;
53036;SDS011;38924;52.134;4.666;2022-07-05T09:53:14;1421.97;;;999.90;;
53036;SDS011;38924;52.134;4.666;2022-07-05T09:55:42;1328.95;;;999.90;;
53036;SDS011;38924;52.134;4.666;2022-07-05T09:58:07;1378.90;;;999.90;;
53036;SDS011;38924;52.134;4.666;2022-07-05T10:00:33;1411.40;;;999.90;;
53036;SDS011;38924;52.134;4.666;2022-07-05T10:03:01;1383.55;;;999.90;;
53036;SDS011;38924;52.134;4.666;2022-07-05T10:05:28;1458.53;;;999.90;;
53036;SDS011;38924;52.134;4.666;2022-07-05T10:07:58;1391.53;;;999.90;;
53036;SDS011;38924;52.134;4.666;2022-07-05T10:10:24;1423.72;;;999.90;;
53036;SDS011;38924;52.134;4.666;2022-07-05T10:12:51;1435.03;;;999.90;;
53036;SDS011;38924;52.134;4.666;2022-07-05T10:15:17;1494.78;;;999.90;;
53036;SDS011;38924;52.134;4.666;2022-07-05T10:17:50;1377.60;;;999.90;;
53036;SDS011;38924;52.134;4.666;2022-07-05T10:20:17;1373.70;;;999.90;;
53036;SDS011;38924;52.134;4.666;2022-07-05T10:22:45;1432.35;;;999.90;;
53036;SDS011;38924;52.134;4.666;2022-07-05T10:25:11;1320.10;;;999.90;;
53036;SDS011;38924;52.134;4.666;2022-07-05T10:27:37;1341.22;;;999.90;;
53036;SDS011;38924;52.134;4.666;2022-07-05T10:30:03;1301.00;;;999.90;;
53036;SDS011;38924;52.134;4.666;2022-07-05T10:32:32;1412.80;;;999.90;;
53036;SDS011;38924;52.134;4.666;2022-07-05T10:34:58;1420.07;;;999.90;;
53036;SDS011;38924;52.134;4.666;2022-07-05T10:37:26;1360.18;;;999.90;;
53036;SDS011;38924;52.134;4.666;2022-07-05T10:39:56;1318.47;;;999.90;;
53036;SDS011;38924;52.134;4.666;2022-07-05T10:42:23;1348.53;;;999.90;;
53036;SDS011;38924;52.134;4.666;2022-07-05T10:44:49;1292.55;;;999.90;;
53036;SDS011;38924;52.134;4.666;2022-07-05T10:47:14;1355.15;;;999.90;;
53036;SDS011;38924;52.134;4.666;2022-07-05T10:49:40;1320.95;;;999.90;;
53036;SDS011;38924;52.134;4.666;2022-07-05T10:52:24;1422.75;;;999.90;;
53036;SDS011;38924;52.134;4.666;2022-07-05T10:55:17;1410.65;;;999.90;;
53036;SDS011;38924;52.134;4.666;2022-07-05T10:57:43;1302.82;;;999.90;;
53036;SDS011;38924;52.134;4.666;2022-07-05T11:00:09;1372.30;;;999.90;;
53036;SDS011;38924;52.134;4.666;2022-07-05T11:02:36;1442.40;;;999.90;;
53036;SDS011;38924;52.134;4.666;2022-07-05T11:05:02;1332.32;;;999.90;;
53036;SDS011;38924;52.134;4.666;2022-07-05T11:10:23;1304.35;;;999.90;;
53036;SDS011;38924;52.134;4.666;2022-07-05T11:12:49;1386.68;;;999.90;;
53036;SDS011;38924;52.134;4.666;2022-07-05T11:15:14;1305.57;;;999.90;;
53036;SDS011;38924;52.134;4.666;2022-07-05T11:17:40;1313.32;;;999.90;;
53036;SDS011;38924;52.134;4.666;2022-07-05T11:20:07;1311.95;;;999.90;;
53036;SDS011;38924;52.134;4.666;2022-07-05T11:22:38;1331.93;;;999.90;;
53036;SDS011;38924;52.134;4.666;2022-07-05T11:25:05;1335.13;;;999.90;;
53036;SDS011;38924;52.134;4.666;2022-07-05T11:27:31;1288.20;;;999.90;;
53036;SDS011;38924;52.134;4.666;2022-07-05T11:29:58;1339.78;;;999.90;;
53036;SDS011;38924;52.134;4.666;2022-07-05T11:35:11;1330.25;;;999.90;;
53036;SDS011;38924;52.134;4.666;2022-07-05T11:37:56;1405.72;;;999.90;;
53036;SDS011;38924;52.134;4.666;2022-07-05T11:42:48;1320.05;;;999.90;;
53036;SDS011;38924;52.134;4.666;2022-07-05T11:45:14;1356.75;;;999.90;;
53036;SDS011;38924;52.134;4.666;2022-07-05T11:47:40;1309.75;;;999.90;;
53036;SDS011;38924;52.134;4.666;2022-07-05T11:50:05;1355.47;;;999.90;;
53036;SDS011;38924;52.134;4.666;2022-07-05T11:52:32;1345.80;;;999.90;;
53036;SDS011;38924;52.134;4.666;2022-07-05T11:54:58;1399.35;;;999.90;;
53036;SDS011;38924;52.134;4.666;2022-07-05T11:57:25;1320.80;;;999.90;;
53036;SDS011;38924;52.134;4.666;2022-07-05T11:59:50;1301.28;;;999.90;;
53036;SDS011;38924;52.134;4.666;2022-07-05T12:02:16;1299.57;;;999.90;;
53036;SDS011;38924;52.134;4.666;2022-07-05T12:04:52;1308.80;;;998.75;;
53036;SDS011;38924;52.134;4.666;2022-07-05T12:09:51;1304.70;;;999.90;;
53036;SDS011;38924;52.134;4.666;2022-07-05T12:12:35;1319.80;;;999.90;;
53036;SDS011;38924;52.134;4.666;2022-07-05T12:15:11;1297.53;;;999.90;;
53036;SDS011;38924;52.134;4.666;2022-07-05T12:17:37;1344.30;;;999.90;;
53036;SDS011;38924;52.134;4.666;2022-07-05T12:20:06;1346.45;;;999.90;;
53036;SDS011;38924;52.134;4.666;2022-07-05T12:22:36;1368.57;;;999.90;;
53036;SDS011;38924;52.134;4.666;2022-07-05T12:25:03;1409.03;;;999.90;;
53036;SDS011;38924;52.134;4.666;2022-07-05T12:27:29;1339.95;;;999.90;;
53036;SDS011;38924;52.134;4.666;2022-07-05T12:29:58;1345.95;;;999.90;;
53036;SDS011;38924;52.134;4.666;2022-07-05T12:32:24;1366.65;;;999.90;;
53036;SDS011;38924;52.134;4.666;2022-07-05T12:34:50;1314.70;;;999.90;;
53036;SDS011;38924;52.134;4.666;2022-07-05T12:37:25;1312.22;;;999.90;;
53036;SDS011;38924;52.134;4.666;2022-07-05T12:40:07;1349.38;;;999.90;;
53036;SDS011;38924;52.134;4.666;2022-07-05T12:42:33;1385.50;;;999.90;;
53036;SDS011;38924;52.134;4.666;2022-07-05T12:45:13;1393.28;;;999.90;;
53036;SDS011;38924;52.134;4.666;2022-07-05T12:50:13;1274.65;;;999.90;;
53036;SDS011;38924;52.134;4.666;2022-07-05T12:55:34;1295.22;;;999.90;;
53036;SDS011;38924;52.134;4.666;2022-07-05T12:58:19;1237.70;;;999.90;;
53036;SDS011;38924;52.134;4.666;2022-07-05T13:00:44;1262.28;;;999.90;;
53036;SDS011;38924;52.134;4.666;2022-07-05T13:03:10;1336.68;;;999.90;;
53036;SDS011;38924;52.134;4.666;2022-07-05T13:05:36;1335.50;;;999.90;;
53036;SDS011;38924;52.134;4.666;2022-07-05T13:08:01;1298.53;;;999.90;;
53036;SDS011;38924;52.134;4.666;2022-07-05T13:10:27;1316.70;;;999.90;;
53036;SDS011;38924;52.134;4.666;2022-07-05T13:12:59;1299.28;;;999.90;;
53036;SDS011;38924;52.134;4.666;2022-07-05T13:15:25;1275.65;;;999.90;;
53036;SDS011;38924;52.134;4.666;2022-07-05T13:17:51;1322.97;;;999.90;;
53036;SDS011;38924;52.134;4.666;2022-07-05T13:20:19;1308.53;;;999.90;;
53036;SDS011;38924;52.134;4.666;2022-07-05T13:22:47;1288.00;;;999.90;;
53036;SDS011;38924;52.134;4.666;2022-07-05T13:25:13;1384.63;;;999.90;;
53036;SDS011;38924;52.134;4.666;2022-07-05T13:27:39;1361.15;;;999.90;;
53036;SDS011;38924;52.134;4.666;2022-07-05T13:30:05;1421.45;;;999.90;;
53036;SDS011;38924;52.134;4.666;2022-07-05T13:32:31;1422.00;;;999.90;;
53036;SDS011;38924;52.134;4.666;2022-07-05T13:35:00;1347.38;;;999.90;;
53036;SDS011;38924;52.134;4.666;2022-07-05T13:37:28;1396.07;;;999.90;;
53036;SDS011;38924;52.134;4.666;2022-07-05T13:39:54;1442.30;;;999.90;;
53036;SDS011;38924;52.134;4.666;2022-07-05T13:42:19;1376.40;;;999.90;;
53036;SDS011;38924;52.134;4.666;2022-07-05T13:44:45;1339.38;;;999.90;;
53036;SDS011;38924;52.134;4.666;2022-07-05T13:47:11;1379.20;;;999.90;;
53036;SDS011;38924;52.134;4.666;2022-07-05T13:49:36;1463.28;;;999.90;;
53036;SDS011;38924;52.134;4.666;2022-07-05T13:52:05;1399.35;;;999.90;;
53036;SDS011;38924;52.134;4.666;2022-07-05T13:54:31;1319.90;;;999.90;;
53036;SDS011;38924;52.134;4.666;2022-07-05T13:56:57;1306.85;;;999.90;;
53036;SDS011;38924;52.134;4.666;2022-07-05T13:59:22;1334.72;;;999.90;;
53036;SDS011;38924;52.134;4.666;2022-07-05T14:01:48;1267.93;;;999.90;;
53036;SDS011;38924;52.134;4.666;2022-07-05T14:04:14;1382.10;;;999.90;;
53036;SDS011;38924;52.134;4.666;2022-07-05T14:06:39;1222.25;;;999.90;;
53036;SDS011;38924;52.134;4.666;2022-07-05T14:09:05;1322.38;;;999.90;;
53036;SDS011;38924;52.134;4.666;2022-07-05T14:11:31;1214.63;;;999.90;;
53036;SDS011;38924;52.134;4.666;2022-07-05T14:13:56;1320.13;;;999.90;;
53036;SDS011;38924;52.134;4.666;2022-07-05T14:16:22;1352.22;;;999.90;;
53036;SDS011;38924;52.134;4.666;2022-07-05T14:18:48;1339.45;;;999.90;;
53036;SDS011;38924;52.134;4.666;2022-07-05T14:21:18;1424.10;;;999.90;;
53036;SDS011;38924;52.134;4.666;2022-07-05T14:23:44;1457.65;;;999.90;;
53036;SDS011;38924;52.134;4.666;2022-07-05T14:26:12;1370.32;;;999.90;;
53036;SDS011;38924;52.134;4.666;2022-07-05T14:28:38;1318.65;;;999.90;;
53036;SDS011;38924;52.134;4.666;2022-07-05T14:31:04;1456.15;;;999.90;;
53036;SDS011;38924;52.134;4.666;2022-07-05T14:33:29;1218.10;;;999.90;;
53036;SDS011;38924;52.134;4.666;2022-07-05T14:35:55;1332.03;;;999.90;;
53036;SDS011;38924;52.134;4.666;2022-07-05T14:38:21;1341.65;;;999.90;;
53036;SDS011;38924;52.134;4.666;2022-07-05T14:40:46;1408.07;;;999.90;;
53036;SDS011;38924;52.134;4.666;2022-07-05T14:43:12;1376.55;;;999.90;;
53036;SDS011;38924;52.134;4.666;2022-07-05T14:45:38;1301.20;;;999.90;;
53036;SDS011;38924;52.134;4.666;2022-07-05T14:48:03;1200.22;;;999.90;;
53036;SDS011;38924;52.134;4.666;2022-07-05T14:50:29;1282.15;;;999.90;;
53036;SDS011;38924;52.134;4.666;2022-07-05T14:52:55;1285.75;;;999.90;;
53036;SDS011;38924;52.134;4.666;2022-07-05T14:55:23;1339.78;;;999.90;;
53036;SDS011;38924;52.134;4.666;2022-07-05T14:57:49;1297.32;;;999.90;;
53036;SDS011;38924;52.134;4.666;2022-07-05T15:00:15;1208.25;;;999.90;;
53036;SDS011;38924;52.134;4.666;2022-07-05T15:02:41;1347.50;;;999.90;;
53036;SDS011;38924;52.134;4.666;2022-07-05T15:05:07;1234.47;;;999.90;;
53036;SDS011;38924;52.134;4.666;2022-07-05T15:07:37;1295.45;;;999.90;;
53036;SDS011;38924;52.134;4.666;2022-07-05T15:10:06;1195.35;;;999.90;;
53036;SDS011;38924;52.134;4.666;2022-07-05T15:12:31;1317.63;;;999.90;;
53036;SDS011;38924;52.134;4.666;2022-07-05T15:14:57;1260.80;;;999.90;;
53036;SDS011;38924;52.134;4.666;2022-07-05T15:17:23;1288.50;;;999.90;;
53036;SDS011;38924;52.134;4.666;2022-07-05T15:19:49;1350.97;;;999.90;;
53036;SDS011;38924;52.134;4.666;2022-07-05T15:22:15;1267.82;;;999.90;;
53036;SDS011;38924;52.134;4.666;2022-07-05T15:24:41;1263.68;;;999.90;;
53036;SDS011;38924;52.134;4.666;2022-07-05T15:27:07;1316.60;;;999.90;;
53036;SDS011;38924;52.134;4.666;2022-07-05T15:29:35;1485.30;;;999.90;;
53036;SDS011;38924;52.134;4.666;2022-07-05T15:32:01;1287.20;;;999.90;;
53036;SDS011;38924;52.134;4.666;2022-07-05T15:34:26;1265.38;;;999.90;;
53036;SDS011;38924;52.134;4.666;2022-07-05T15:36:52;1258.97;;;999.90;;
53036;SDS011;38924;52.134;4.666;2022-07-05T15:39:18;1200.55;;;999.90;;
53036;SDS011;38924;52.134;4.666;2022-07-05T15:41:44;1243.13;;;999.90;;
53036;SDS011;38924;52.134;4.666;2022-07-05T15:44:09;1161.80;;;999.90;;
53036;SDS011;38924;52.134;4.666;2022-07-05T15:46:35;1259.18;;;999.90;;
53036;SDS011;38924;52.134;4.666;2022-07-05T15:49:19;1208.70;;;999.90;;
53036;SDS011;38924;52.134;4.666;2022-07-05T15:51:45;1183.53;;;999.90;;